Flight Track Log - Related Links

Times and Time Zones

All times are in EDT time to prevent confusion due to time zone crossing. See the ASQ5311 flight status page for this flight to view local times or setup timezone preferences in your user account.

Time Position Orientation Groundspeed Altitude Reporting Facility
EDT Latitude Longitude Course Direction KTS MPH feet Rate Location/Type
Sun 10:04:58 PM 40.7575 -73.8433 140° Southeast 105 121 1,900  Level Boston Center
Sun 10:05:59 PM 40.7222 -73.8042 140° Southeast 203 234 4,500 2,727 Climbing Boston Center
Sun 10:06:59 PM 40.7711 -73.7536 38° Northeast 227 261 7,400 2,876 Climbing Boston Center
Sun 10:08:00 PM 40.8361 -73.7042 30° Northeast 268 308 10,300 2,262 Climbing Boston Center
Sun 10:09:01 PM 40.9156 -73.6561 25° Northeast 316 364 12,000 2,380 Climbing Boston Center
Sun 10:10:01 PM 41.0183 -73.5939 25° Northeast 345 397 15,100 2,678 Climbing Boston Center
Sun 10:11:02 PM 41.1106 -73.5383 24° Northeast 359 413 17,400 2,016 Climbing Boston Center
Sun 10:12:03 PM 41.2056 -73.4817 24° Northeast 376 433 19,200 1,686 Climbing Boston Center
Sun 10:13:03 PM 41.2972 -73.4508 14° North 391 450 20,800 1,785 Climbing Boston Center
Sun 10:14:04 PM 41.4058 -73.4433 North 389 448 22,800 1,770 Climbing Boston Center
Sun 10:15:05 PM 41.5169 -73.4347 North 395 455 24,400 1,636 Climbing Boston Center
Sun 10:16:05 PM 41.6436 -73.4275 North 407 468 26,100 1,388 Climbing Boston Center
Sun 10:17:06 PM 41.7619 -73.4194 North 420 483 27,200 1,230 Climbing Boston Center
Sun 10:18:07 PM 41.8669 -73.3331 31° Northeast 447 514 28,600 1,190 Climbing Boston Center
Sun 10:19:07 PM 41.9553 -73.2056 47° Northeast 463 533 29,600 1,091 Climbing Boston Center
Sun 10:20:08 PM 42.0442 -73.0792 47° Northeast 465 535 30,800 694 Climbing Boston Center
Sun 10:21:08 PM 42.1344 -72.9489 47° Northeast 474 545 31,000 99 Climbing Boston Center
Sun 10:22:09 PM 42.2289 -72.8128 47° Northeast 496 571 31,000  Level Boston Center
Sun 10:23:10 PM 42.3414 -72.6497 47° Northeast 500 575 31,000  Level Boston Center
Sun 10:24:10 PM 42.4322 -72.5178 47° Northeast 500 575 31,000  Level Boston Center
Sun 10:25:11 PM 42.5272 -72.3783 47° Northeast 501 577 31,000  Level Boston Center
Sun 10:26:12 PM 42.6239 -72.2383 47° Northeast 502 578 31,000  Level Boston Center
Sun 10:27:12 PM 42.7203 -72.0983 47° Northeast 505 581 31,000  Level Boston Center
Sun 10:28:13 PM 42.8144 -71.9581 48° Northeast 505 581 31,000  Level Boston Center
Sun 10:29:13 PM 42.9083 -71.8186 47° Northeast 505 581 31,000  Level Boston Center
Sun 10:30:14 PM 43.0011 -71.6775 48° Northeast 505 581 31,000  Level Boston Center
Sun 10:31:15 PM 43.1036 -71.5222 48° Northeast 504 580 31,000  Level Boston Center
Sun 10:32:15 PM 43.1878 -71.3961 48° Northeast 500 575 31,000  Level Boston Center
Sun 10:33:16 PM 43.2806 -71.2539 48° Northeast 501 577 31,000  Level Boston Center
Sun 10:34:16 PM 43.3833 -71.0964 48° Northeast 501 577 31,000  Level Boston Center
Sun 10:35:17 PM 43.4658 -70.9692 48° Northeast 501 577 31,000  Level Boston Center
Sun 10:36:17 PM 43.5586 -70.8272 48° Northeast 501 577 31,000  Level Boston Center
Sun 10:37:18 PM 43.6650 -70.6619 48° Northeast 498 573 31,000 -49 Level Boston Center
Sun 10:38:19 PM 43.7589 -70.5147 49° Northeast 508 585 30,900 -1,388 Descending Boston Center
Sun 10:39:19 PM 43.8497 -70.3689 49° Northeast 503 579 28,200 -2,579 Descending Boston Center
Sun 10:40:20 PM 43.9383 -70.2322 48° Northeast 478 550 25,700 -2,529 Descending Boston Center
Sun 10:41:20 PM 44.0281 -70.0928 48° Northeast 480 552 23,100 -2,529 Descending Boston Center
Sun 10:42:21 PM 44.1142 -69.9539 49° Northeast 476 548 20,600 -2,459 Descending Boston Center
Sun 10:43:22 PM 44.1983 -69.8208 49° Northeast 459 528 18,100 -2,380 Descending Boston Center
Sun 10:44:22 PM 44.2817 -69.6875 49° Northeast 429 494 15,800 -2,132 Descending Boston Center
Sun 10:45:23 PM 44.3497 -69.5778 49° Northeast 409 471 13,800 -2,033 Descending Boston Center
Sun 10:46:23 PM 44.4297 -69.4756 42° Northeast 391 450 11,700 -1,835 Descending Boston Center
Sun 10:47:24 PM 44.5031 -69.3922 39° Northeast 351 404 10,100 -1,377 Descending Boston Center
Sun 10:48:25 PM 44.5622 -69.3236 40° Northeast 283 326 8,900 -1,537 Descending Boston Center
Sun 10:49:25 PM 44.6239 -69.2522 39° Northeast 284 327 7,000 -1,835 Descending Boston Center
Sun 10:50:26 PM 44.6817 -69.1831 40° Northeast 280 322 5,200 -1,636 Descending Boston Center
Sun 10:51:26 PM 44.7394 -69.1175 39° Northeast 274 315 3,700 -1,240 Descending Boston Center
Sun 10:52:27 PM 44.7919 -69.0597 38° Northeast 247 284 2,700 -787 Descending Boston Center
Sun 10:53:28 PM 44.8414 -69.0064 37° Northeast 229 264 2,100 -446 Descending Boston Center
Sun 10:54:28 PM 44.8658 -68.9389 63° Northeast 198 228 1,800 -446 Descending Boston Center
Sun 10:55:29 PM 44.8497 -68.8900 115° Southeast 156 180 1,200 -645 Descending Boston Center
Sun 10:56:29 PM 44.8244 -68.8539 135° Southeast 139 160 500 -446 Descending Boston Center
Sun 10:57:30 PM 44.8000 -68.8206 136° Southeast 137 158 300 -197 Descending Boston Center

Login

Don't have an account? Register now (free) for customized features, flight alerts, and more!